createdAt,value
2019-04-21T00:01:26.534Z,12.60
2019-04-21T00:06:48.159Z,12.20
2019-04-21T00:11:55.693Z,12.10
2019-04-21T00:16:51.093Z,12.10
2019-04-21T00:21:53.428Z,12.10
2019-04-21T00:27:10.886Z,12.00
2019-04-21T00:32:10.191Z,11.70
2019-04-21T00:37:16.655Z,11.60
2019-04-21T00:42:30.317Z,11.40
2019-04-21T00:47:36.583Z,11.50
2019-04-21T00:52:51.272Z,11.30
2019-04-21T01:02:59.348Z,10.90
2019-04-21T01:07:57.910Z,10.70
2019-04-21T01:13:13.959Z,10.70
2019-04-21T01:18:10.772Z,10.60
2019-04-21T01:22:57.968Z,10.70
2019-04-21T01:28:18.805Z,10.60
2019-04-21T01:33:34.942Z,10.40
2019-04-21T01:38:35.742Z,10.30
2019-04-21T01:43:37.539Z,10.30
2019-04-21T01:48:40.107Z,10.20
2019-04-21T01:53:55.079Z,10.20
2019-04-21T01:58:48.152Z,10.10
2019-04-21T02:03:59.683Z,10.00
2019-04-21T02:09:10.075Z,9.80
2019-04-21T02:14:19.389Z,9.60
2019-04-21T02:19:16.571Z,9.50
2019-04-21T02:24:40.056Z,9.20
2019-04-21T02:29:37.015Z,9.20
2019-04-21T02:34:50.726Z,9.30
2019-04-21T02:39:57.272Z,9.10
2019-04-21T02:45:06.606Z,8.80
2019-04-21T02:55:11.290Z,8.90
2019-04-21T03:00:26.790Z,8.90
2019-04-21T03:10:51.757Z,8.70
2019-04-21T03:15:47.263Z,8.50
2019-04-21T03:21:00.193Z,8.50
2019-04-21T03:26:00.787Z,8.50
2019-04-21T03:41:26.889Z,8.00
2019-04-21T03:46:29.617Z,7.90
2019-04-21T03:56:52.119Z,7.90
2019-04-21T04:07:31.202Z,8.00
2019-04-21T04:12:26.811Z,7.80
2019-04-21T04:17:32.945Z,7.70
2019-04-21T04:32:53.774Z,7.80
2019-04-21T04:37:57.351Z,7.80
2019-04-21T04:43:11.768Z,8.00
2019-04-21T04:48:13.481Z,8.10
2019-04-21T04:58:29.683Z,8.10
2019-04-21T05:03:44.337Z,8.30
2019-04-21T05:08:56.375Z,8.60
2019-04-21T05:13:51.175Z,8.50
2019-04-21T05:18:55.946Z,8.70
2019-04-21T05:23:44.069Z,8.60
2019-04-21T05:28:44.544Z,8.50
2019-04-21T05:34:03.081Z,8.50
2019-04-21T05:39:14.613Z,8.80
2019-04-21T05:44:29.463Z,9.00
2019-04-21T05:49:36.995Z,9.40
2019-04-21T05:54:44.125Z,9.80
2019-04-21T05:59:43.570Z,9.90
2019-04-21T06:10:02.105Z,10.10
2019-04-21T06:15:00.933Z,10.20
2019-04-21T06:20:07.618Z,10.30
2019-04-21T06:25:43.249Z,10.50
2019-04-21T06:30:19.335Z,10.80
2019-04-21T06:35:58.863Z,11.10
2019-04-21T06:40:51.173Z,11.20
2019-04-21T06:45:54.249Z,11.20
2019-04-21T06:51:01.965Z,11.50
2019-04-21T06:56:09.173Z,11.60
2019-04-21T07:01:11.778Z,11.80
2019-04-21T07:06:13.181Z,12.00
2019-04-21T07:11:21.132Z,12.30
2019-04-21T07:16:28.478Z,12.40
2019-04-21T07:21:29.937Z,12.60
2019-04-21T07:26:36.297Z,12.80
2019-04-21T07:31:47.023Z,13.10
2019-04-21T07:36:59.675Z,13.30
2019-04-21T07:41:44.687Z,13.60
2019-04-21T07:46:52.152Z,13.60
2019-04-21T07:52:24.843Z,14.00
2019-04-21T07:57:19.043Z,14.20
2019-04-21T08:02:30.763Z,14.60
2019-04-21T08:07:48.234Z,15.00
2019-04-21T08:12:36.395Z,15.50
2019-04-21T08:17:48.563Z,17.90
2019-04-21T08:22:51.796Z,21.10
2019-04-21T08:28:01.206Z,23.80
2019-04-21T08:33:07.020Z,25.40
2019-04-21T08:38:08.852Z,26.60
2019-04-21T08:43:21.715Z,26.70
2019-04-21T08:48:16.932Z,27.00
2019-04-21T08:53:24.959Z,27.20
2019-04-21T08:58:57.533Z,28.40
2019-04-21T09:04:03.794Z,30.60
2019-04-21T09:09:14.722Z,34.00
2019-04-21T09:14:13.951Z,34.10
2019-04-21T09:19:20.231Z,34.10
2019-04-21T09:24:31.313Z,31.90
2019-04-21T09:29:21.321Z,33.30
2019-04-21T09:34:23.564Z,34.80
2019-04-21T09:39:24.475Z,38.00
2019-04-21T09:44:33.588Z,38.40
2019-04-21T09:49:35.453Z,39.20
2019-04-21T09:54:48.143Z,41.00
2019-04-21T09:59:53.858Z,40.10
2019-04-21T10:04:50.489Z,40.10
2019-04-21T10:09:54.589Z,42.40
2019-04-21T10:14:59.434Z,43.30
2019-04-21T10:20:05.166Z,45.20
2019-04-21T10:25:10.497Z,43.90
2019-04-21T10:30:16.219Z,39.90
2019-04-21T10:35:21.736Z,38.60
2019-04-21T10:40:25.582Z,41.00
2019-04-21T10:45:30.735Z,42.30
2019-04-21T10:50:34.862Z,44.30
2019-04-21T10:55:54.269Z,45.70
2019-04-21T11:00:46.041Z,44.30
2019-04-21T11:05:50.528Z,39.70
2019-04-21T11:10:54.285Z,38.10
2019-04-21T11:15:59.182Z,37.60
2019-04-21T11:21:03.137Z,39.50
2019-04-21T11:26:06.910Z,41.60
2019-04-21T11:31:11.085Z,43.30
2019-04-21T11:36:15.475Z,44.30
2019-04-21T11:41:19.632Z,43.00
2019-04-21T11:46:24.394Z,43.40
2019-04-21T11:51:28.962Z,43.70
2019-04-21T11:56:32.767Z,40.80
2019-04-21T12:01:36.426Z,37.20
2019-04-21T12:06:45.432Z,36.00
2019-04-21T12:11:45.743Z,37.00
2019-04-21T12:16:50.798Z,39.10
2019-04-21T12:22:05.048Z,36.90
2019-04-21T12:27:00.107Z,37.30
2019-04-21T12:32:22.220Z,39.70
2019-04-21T12:37:26.882Z,39.10
2019-04-21T12:42:30.630Z,38.60
2019-04-21T12:47:34.295Z,39.40
2019-04-21T12:52:38.030Z,39.40
2019-04-21T12:57:41.792Z,39.10
2019-04-21T13:02:45.634Z,40.80
2019-04-21T13:07:49.404Z,41.90
2019-04-21T13:12:54.251Z,41.40
2019-04-21T13:17:58.499Z,39.80
2019-04-21T13:23:03.813Z,40.80
2019-04-21T13:28:10.350Z,41.30
2019-04-21T13:33:15.304Z,40.20
2019-04-21T13:38:29.340Z,40.10
2019-04-21T13:43:25.342Z,40.20
2019-04-21T13:48:30.590Z,40.10
2019-04-21T13:53:36.177Z,38.80
2019-04-21T13:58:40.264Z,37.70
2019-04-21T14:03:44.088Z,38.60
2019-04-21T14:08:49.142Z,39.20
2019-04-21T14:13:54.389Z,38.30
2019-04-21T14:18:59.197Z,36.30
2019-04-21T14:24:02.858Z,36.50
2019-04-21T14:29:07.758Z,37.00
2019-04-21T14:34:12.132Z,37.30
2019-04-21T14:39:16.666Z,36.30
2019-04-21T14:44:20.753Z,35.40
2019-04-21T14:49:44.868Z,36.50
2019-04-21T14:55:08.945Z,36.10
2019-04-21T15:00:15.708Z,35.20
2019-04-21T15:05:19.796Z,35.20
2019-04-21T15:10:26.958Z,34.50
2019-04-21T15:15:54.177Z,33.50
2019-04-21T15:21:05.719Z,34.80
2019-04-21T15:26:14.411Z,34.70
2019-04-21T15:31:42.605Z,35.20
2019-04-21T15:36:50.399Z,35.40
2019-04-21T15:42:06.138Z,34.50
2019-04-21T15:47:14.169Z,34.70
2019-04-21T15:52:25.472Z,34.50
2019-04-21T15:57:52.298Z,33.30
2019-04-21T16:03:04.605Z,32.50
2019-04-21T16:08:12.246Z,31.30
2019-04-21T16:13:19.378Z,29.80
2019-04-21T16:18:29.917Z,28.80
2019-04-21T16:23:36.259Z,28.80
2019-04-21T16:28:41.591Z,29.00
2019-04-21T16:33:47.042Z,29.00
2019-04-21T16:38:51.483Z,29.00
2019-04-21T16:43:55.504Z,29.60
2019-04-21T16:49:00.214Z,29.50
2019-04-21T16:54:24.064Z,29.40
2019-04-21T16:59:34.702Z,29.30
2019-04-21T17:04:38.456Z,28.80
2019-04-21T17:09:42.159Z,28.80
2019-04-21T17:15:03.174Z,28.40
2019-04-21T17:19:54.724Z,27.60
2019-04-21T17:24:58.239Z,27.30
2019-04-21T17:30:02.165Z,27.10
2019-04-21T17:35:08.062Z,26.60
2019-04-21T17:40:13.523Z,26.20
2019-04-21T17:45:17.414Z,25.90
2019-04-21T17:50:41.281Z,25.30
2019-04-21T17:55:53.112Z,24.80
2019-04-21T18:01:12.907Z,24.10
2019-04-21T18:06:10.133Z,23.50
2019-04-21T18:11:12.520Z,22.90
2019-04-21T18:16:20.642Z,22.30
2019-04-21T18:21:22.894Z,21.90
2019-04-21T18:26:37.988Z,21.40
2019-04-21T18:31:39.807Z,21.20
2019-04-21T18:36:48.136Z,20.70
2019-04-21T18:42:31.227Z,20.30
2019-04-21T18:47:58.515Z,20.50
2019-04-21T18:53:03.327Z,20.00
2019-04-21T18:58:01.100Z,19.60
2019-04-21T19:03:09.584Z,19.20
2019-04-21T19:08:26.394Z,19.10
2019-04-21T19:13:44.462Z,19.00
2019-04-21T19:19:10.041Z,18.90
2019-04-21T19:24:15.617Z,18.90
2019-04-21T19:28:53.823Z,18.70
2019-04-21T19:33:48.000Z,18.90
2019-04-21T19:38:55.867Z,18.50
2019-04-21T19:44:07.731Z,18.30
2019-04-21T19:49:21.391Z,18.00
2019-04-21T19:54:13.023Z,17.90
2019-04-21T19:59:11.832Z,17.60
2019-04-21T20:04:14.703Z,17.50
2019-04-21T20:09:37.828Z,17.20
2019-04-21T20:19:30.110Z,16.90
2019-04-21T20:24:35.997Z,16.80
2019-04-21T20:29:57.975Z,16.60
2019-04-21T20:35:09.354Z,16.50
2019-04-21T20:39:59.815Z,16.80
2019-04-21T20:45:31.991Z,16.50
2019-04-21T20:50:18.515Z,16.20
2019-04-21T20:55:19.159Z,16.00
2019-04-21T21:00:31.787Z,16.10
2019-04-21T21:05:37.036Z,15.90
2019-04-21T21:10:38.829Z,15.70
2019-04-21T21:15:51.329Z,15.60
2019-04-21T21:20:54.093Z,15.40
2019-04-21T21:25:59.305Z,15.30
2019-04-21T21:31:04.279Z,15.30
2019-04-21T21:36:09.377Z,15.10
2019-04-21T21:41:07.576Z,14.80
2019-04-21T21:46:10.778Z,14.70
2019-04-21T21:51:15.487Z,14.40
2019-04-21T21:56:14.571Z,14.20
2019-04-21T22:01:21.696Z,14.20
2019-04-21T22:06:34.202Z,14.00
2019-04-21T22:11:31.534Z,13.80
2019-04-21T22:16:43.214Z,13.60
2019-04-21T22:22:01.005Z,13.50
2019-04-21T22:26:47.334Z,13.30
2019-04-21T22:31:52.738Z,13.20
2019-04-21T22:37:16.704Z,13.20
2019-04-21T22:42:11.450Z,12.90
2019-04-21T22:47:16.799Z,12.80
2019-04-21T22:52:18.700Z,12.80
2019-04-21T22:57:23.094Z,12.70
2019-04-21T23:02:29.896Z,12.70
2019-04-21T23:07:32.886Z,12.50
2019-04-21T23:12:39.925Z,12.20
2019-04-21T23:18:02.062Z,12.50
2019-04-21T23:23:05.065Z,12.40
2019-04-21T23:28:06.700Z,12.30
2019-04-21T23:33:06.082Z,12.10
2019-04-21T23:38:06.830Z,11.90
2019-04-21T23:43:16.790Z,11.80
2019-04-21T23:48:29.813Z,11.70
2019-04-21T23:53:21.544Z,11.50
2019-04-21T23:58:28.144Z,11.40
